Time;durP1;ratioP1;P1;durP2;ratioP2;P2;SDS_P1;SDS_P2;PMS_P1;PMS_P2;Temp;Humidity;BMP_temperature;BMP_pressure;BME280_temperature;BME280_humidity;BME280_pressure;Samples;Min_cycle;Max_cycle;Signal;HPM_P1;HPM_P2
2021/12/15 00:01:15;;;;;;;15.27;6.63;;;1.80;99.90;;;;;;5054758;28;20036;-73
2021/12/15 00:03:41;;;;;;;14.40;5.03;;;1.80;99.90;;;;;;5072758;28;20269;-74
2021/12/15 00:06:16;;;;;;;10.85;5.03;;;1.90;99.90;;;;;;5054496;28;20456;-74
2021/12/15 00:08:45;;;;;;;10.63;4.63;;;1.90;99.90;;;;;;5072717;28;20032;-74
2021/12/15 00:11:11;;;;;;;9.65;4.85;;;1.90;99.90;;;;;;5072653;28;20502;-74
2021/12/15 00:13:41;;;;;;;13.10;5.10;;;1.90;99.90;;;;;;5072488;28;20086;-74
2021/12/15 00:16:09;;;;;;;12.02;4.05;;;1.90;99.90;;;;;;5072209;28;20539;-75
2021/12/15 00:18:35;;;;;;;11.63;4.93;;;1.90;99.90;;;;;;5072744;28;20103;-75
2021/12/15 00:21:03;;;;;;;11.90;5.05;;;1.90;99.90;;;;;;5072563;28;20561;-75
2021/12/15 00:23:30;;;;;;;12.60;4.72;;;1.90;99.90;;;;;;5072205;28;20060;-75
2021/12/15 00:25:56;;;;;;;11.63;5.25;;;1.90;99.90;;;;;;5054130;28;20475;-74
2021/12/15 00:28:22;;;;;;;10.75;4.82;;;1.90;99.90;;;;;;5053370;28;20032;-74
2021/12/15 00:30:47;;;;;;;13.45;5.05;;;1.80;99.90;;;;;;5054232;28;20495;-75
2021/12/15 00:33:13;;;;;;;11.07;4.50;;;1.80;99.90;;;;;;5072146;28;20036;-74
2021/12/15 00:35:40;;;;;;;10.07;4.93;;;1.80;99.90;;;;;;5054627;28;20492;-74
2021/12/15 00:38:07;;;;;;;12.77;5.90;;;1.90;99.90;;;;;;5071965;28;20029;-75
2021/12/15 00:40:33;;;;;;;9.10;4.38;;;1.80;99.90;;;;;;5072155;28;20078;-74
2021/12/15 00:42:59;;;;;;;8.45;4.05;;;1.80;99.90;;;;;;5053791;28;20024;-75
2021/12/15 00:45:26;;;;;;;9.95;4.55;;;1.80;99.90;;;;;;5072380;28;20031;-75
2021/12/15 00:47:52;;;;;;;;;;;1.90;99.90;;;;;;5063111;28;20070;-75
2021/12/15 00:50:21;;;;;;;8.52;4.40;;;1.80;99.90;;;;;;5093065;28;19916;-75
2021/12/15 00:52:47;;;;;;;11.10;5.13;;;1.80;99.90;;;;;;5056679;28;20027;-75
2021/12/15 00:55:17;;;;;;;9.75;4.47;;;1.80;99.90;;;;;;5072359;28;20052;-75
2021/12/15 00:57:43;;;;;;;11.20;4.30;;;1.90;99.90;;;;;;5071885;28;20070;-75
2021/12/15 01:00:17;;;;;;;9.95;3.72;;;1.90;99.90;;;;;;5054267;28;20039;-74
2021/12/15 01:02:43;;;;;;;10.68;4.63;;;1.90;99.90;;;;;;5071837;28;20479;-75
2021/12/15 01:05:13;;;;;;;10.30;4.25;;;1.90;99.90;;;;;;5071920;28;20028;-75
2021/12/15 01:07:39;;;;;;;9.30;4.32;;;1.80;99.90;;;;;;5071669;28;20154;-75
2021/12/15 01:10:07;;;;;;;10.77;5.25;;;1.80;99.90;;;;;;5071572;28;20443;-75
2021/12/15 01:20:50;;;;;;;11.32;4.75;;;1.80;99.90;;;;;;5072242;28;20596;-75
2021/12/15 01:23:22;;;;;;;11.88;4.28;;;1.90;99.90;;;;;;5053232;28;20460;-75
2021/12/15 01:25:55;;;;;;;10.57;4.88;;;1.70;99.90;;;;;;5071203;28;20297;-75
2021/12/15 01:28:22;;;;;;;10.63;4.60;;;1.70;99.90;;;;;;5053118;28;20025;-75
2021/12/15 01:30:49;;;;;;;10.07;5.20;;;1.70;99.90;;;;;;5053186;28;20036;-75
2021/12/15 01:33:15;;;;;;;;;;;1.70;99.90;;;;;;5071779;28;20447;-75
2021/12/15 01:35:43;;;;;;;;;;;1.60;99.90;;;;;;5072020;28;20217;-74
2021/12/15 01:38:09;;;;;;;;;;;1.60;99.90;;;;;;5050104;28;20268;-75
2021/12/15 01:40:38;;;;;;;;;;;1.50;99.90;;;;;;5033785;28;19913;-74
2021/12/15 01:43:16;;;;;;;;;;;1.50;99.90;;;;;;5071041;28;19912;-75
2021/12/15 01:48:28;;;;;;;;;;;1.50;99.90;;;;;;5071454;28;19931;-74
2021/12/15 01:50:54;;;;;;;;;;;1.50;99.90;;;;;;5071497;28;19927;-75
2021/12/15 01:53:19;;;;;;;;;;;1.50;99.90;;;;;;5056448;28;20279;-74
2021/12/15 01:55:46;;;;;;;;;;;1.50;99.90;;;;;;5072313;28;20260;-74
2021/12/15 01:58:12;;;;;;;;;;;1.40;99.90;;;;;;5091843;28;20037;-74
2021/12/15 02:00:45;;;;;;;;;;;1.40;99.90;;;;;;5073492;28;19943;-74
2021/12/15 02:03:11;;;;;;;;;;;1.40;99.90;;;;;;5051902;28;20379;-74
2021/12/15 02:05:37;;;;;;;;;;;1.40;99.90;;;;;;5033263;28;19917;-74
2021/12/15 02:08:04;;;;;;;;;;;1.50;99.90;;;;;;5052693;28;19954;-74
2021/12/15 02:10:32;;;;;;;;;;;1.50;99.90;;;;;;5053583;28;19966;-74
2021/12/15 02:12:59;;;;;;;;;;;1.50;99.90;;;;;;5071056;28;20331;-74
2021/12/15 02:15:26;;;;;;;;;;;1.50;99.90;;;;;;5071498;28;19924;-75
2021/12/15 02:17:52;;;;;;;;;;;1.60;99.90;;;;;;5071012;28;19905;-75
2021/12/15 02:20:18;;;;;;;;;;;1.60;99.90;;;;;;5071806;28;19924;-74
2021/12/15 02:22:44;;;;;;;;;;;1.50;99.90;;;;;;5052988;28;20000;-74
2021/12/15 02:25:12;;;;;;;;;;;1.50;99.90;;;;;;5071340;28;20101;-74
2021/12/15 02:27:38;;;;;;;;;;;1.50;99.90;;;;;;5071092;28;19919;-74
2021/12/15 02:30:19;;;;;;;;;;;1.50;99.90;;;;;;5053121;28;19995;-74
2021/12/15 02:38:07;;;;;;;;;;;1.50;99.90;;;;;;5071220;28;20420;-74
2021/12/15 02:40:32;;;;;;;;;;;1.50;99.90;;;;;;5071473;28;19913;-74
2021/12/15 02:42:58;;;;;;;;;;;1.50;99.90;;;;;;5070578;28;20378;-75
2021/12/15 02:45:27;;;;;;;;;;;1.50;99.90;;;;;;5071232;28;20267;-75
2021/12/15 02:47:53;;;;;;;;;;;1.50;99.90;;;;;;5052864;28;19934;-75
2021/12/15 02:50:21;;;;;;;;;;;1.50;99.90;;;;;;5071512;28;20343;-75
2021/12/15 02:52:46;;;;;;;;;;;1.50;99.90;;;;;;5056269;28;20320;-75
2021/12/15 02:55:12;;;;;;;;;;;1.50;99.90;;;;;;5074604;28;19971;-74
2021/12/15 02:57:38;;;;;;;;;;;1.50;99.90;;;;;;5056247;28;19915;-75
2021/12/15 03:00:16;;;;;;;;;;;1.40;99.90;;;;;;5056548;28;19998;-75
2021/12/15 03:03:03;;;;;;;;;;;1.40;99.90;;;;;;5056266;28;19912;-75
2021/12/15 03:05:40;;;;;;;;;;;1.40;99.90;;;;;;5074441;28;19923;-74
2021/12/15 03:08:17;;;;;;;;;;;1.50;99.90;;;;;;5074208;28;19915;-73
2021/12/15 03:16:15;;;;;;;;;;;1.40;99.90;;;;;;5074245;28;19911;-74
2021/12/15 03:18:41;;;;;;;;;;;1.40;99.90;;;;;;5074205;28;19931;-74
2021/12/15 03:21:15;;;;;;;;;;;1.40;99.90;;;;;;5073911;28;19915;-74
2021/12/15 03:23:54;;;;;;;;;;;1.50;99.90;;;;;;5073880;28;20271;-74
2021/12/15 03:26:29;;;;;;;;;;;1.50;99.90;;;;;;5078767;28;20007;-74
2021/12/15 03:37:23;;;;;;;;;;;1.50;99.90;;;;;;5036730;28;19951;-73
2021/12/15 03:39:57;;;;;;;;;;;1.50;99.90;;;;;;5052363;28;19988;-74
2021/12/15 03:42:29;;;;;;;;;;;1.40;99.90;;;;;;5066021;28;20347;-74
2021/12/15 03:44:56;;;;;;;;;;;1.40;99.90;;;;;;5055067;28;19924;-74
2021/12/15 03:47:24;;;;;;;;;;;1.40;99.90;;;;;;5060031;28;19911;-74
2021/12/15 03:49:51;;;;;;;;;;;1.40;99.90;;;;;;5094041;28;19964;-74
2021/12/15 03:52:17;;;;;;;;;;;1.40;99.90;;;;;;5080532;28;19904;-75
2021/12/15 03:54:43;;;;;;;;;;;1.40;99.90;;;;;;5055197;28;19921;-75
2021/12/15 03:57:09;;;;;;;;;;;1.40;99.90;;;;;;5073240;28;19911;-75
2021/12/15 03:59:40;;;;;;;;;;;1.50;99.90;;;;;;5073396;28;20005;-74
2021/12/15 04:02:05;;;;;;;;;;;1.40;99.90;;;;;;5055348;28;19915;-74
2021/12/15 04:04:31;;;;;;;;;;;1.40;99.90;;;;;;5055150;28;20235;-74
2021/12/15 04:06:57;;;;;;;;;;;1.40;99.90;;;;;;5054704;28;19948;-74
2021/12/15 04:09:22;;;;;;;;;;;1.40;99.90;;;;;;5088794;28;19917;-75
2021/12/15 04:11:48;;;;;;;;;;;1.40;99.90;;;;;;5088616;28;20370;-74
2021/12/15 04:14:19;;;;;;;;;;;1.40;99.90;;;;;;5072973;28;19958;-74
2021/12/15 04:16:58;;;;;;;;;;;1.50;99.90;;;;;;5071541;28;19943;-75
2021/12/15 04:19:24;;;;;;;;;;;1.40;99.90;;;;;;5088673;28;19927;-74
2021/12/15 04:21:49;;;;;;;;;;;1.50;99.90;;;;;;5072754;28;19912;-75
2021/12/15 04:24:16;;;;;;;;;;;1.30;99.90;;;;;;5072911;28;19934;-74
2021/12/15 04:26:42;;;;;;;;;;;1.30;99.90;;;;;;5072405;28;20233;-74
2021/12/15 04:29:08;;;;;;;;;;;1.20;99.90;;;;;;5055220;28;19916;-74
2021/12/15 04:31:35;;;;;;;;;;;1.20;99.90;;;;;;5072641;28;20404;-74
2021/12/15 04:34:03;;;;;;;;;;;1.30;99.90;;;;;;5054586;28;20306;-73
2021/12/15 04:36:31;;;;;;;;;;;1.30;99.90;;;;;;5054410;28;19912;-74
2021/12/15 04:38:57;;;;;;;;;;;1.30;99.90;;;;;;5054491;28;19955;-75
2021/12/15 04:41:23;;;;;;;;;;;1.20;99.90;;;;;;5054528;28;19970;-74
2021/12/15 04:43:57;;;;;;;;;;;1.10;99.90;;;;;;5054804;28;19912;-75
2021/12/15 04:46:26;;;;;;;;;;;1.10;99.90;;;;;;5072349;28;20355;-74
2021/12/15 04:48:52;;;;;;;;;;;1.10;99.90;;;;;;5071723;28;19957;-74
2021/12/15 04:51:18;;;;;;;;;;;1.20;99.90;;;;;;5069379;28;20874;-74
2021/12/15 04:53:45;;;;;;;;;;;1.20;99.90;;;;;;5053891;28;19933;-74
2021/12/15 04:56:10;;;;;;;;;;;1.10;99.90;;;;;;5054292;28;19904;-75
2021/12/15 04:58:36;;;;;;;;;;;1.20;99.90;;;;;;5071950;28;19958;-74
2021/12/15 05:01:03;;;;;;;;;;;1.20;99.90;;;;;;5071909;28;19935;-75
2021/12/15 05:03:29;;;;;;;;;;;1.20;99.90;;;;;;5054171;28;20274;-74
2021/12/15 05:05:55;;;;;;;;;;;1.10;99.90;;;;;;5072009;28;19911;-75
2021/12/15 05:08:20;;;;;;;;;;;1.20;99.90;;;;;;5071980;28;20299;-75
2021/12/15 05:10:47;;;;;;;;;;;1.20;99.90;;;;;;5053924;28;19912;-74
2021/12/15 05:13:13;;;;;;;;;;;1.20;99.90;;;;;;5071590;28;19911;-75
2021/12/15 05:15:39;;;;;;;;;;;1.10;99.90;;;;;;5072557;28;19917;-75
2021/12/15 05:18:05;;;;;;;;;;;1.10;99.90;;;;;;5071860;28;19912;-75
2021/12/15 05:20:33;;;;;;;;;;;1.10;99.90;;;;;;5072594;28;19912;-74
2021/12/15 05:22:58;;;;;;;;;;;1.10;99.90;;;;;;5053424;28;20286;-74
2021/12/15 05:25:24;;;;;;;;;;;1.10;99.90;;;;;;5054105;28;19913;-75
2021/12/15 05:27:50;;;;;;;;;;;1.20;99.90;;;;;;5069236;28;19904;-74
2021/12/15 05:30:17;;;;;;;;;;;1.10;99.90;;;;;;5052168;28;20391;-74
2021/12/15 05:32:43;;;;;;;;;;;1.10;99.90;;;;;;5067874;28;19916;-75
2021/12/15 05:35:10;;;;;;;;;;;1.10;99.90;;;;;;5054073;28;19928;-74
2021/12/15 05:37:37;;;;;;;;;;;1.20;99.90;;;;;;5071858;28;20351;-74
2021/12/15 05:40:04;;;;;;;;;;;1.00;99.90;;;;;;5071841;28;19943;-74
2021/12/15 05:42:29;;;;;;;;;;;1.00;99.90;;;;;;5071337;28;19958;-73
2021/12/15 05:44:55;;;;;;;;;;;1.00;99.90;;;;;;5071675;28;20296;-73
2021/12/15 05:47:21;;;;;;;;;;;1.00;99.90;;;;;;5071568;28;19932;-75
2021/12/15 05:49:48;;;;;;;;;;;1.00;99.90;;;;;;5072026;28;19912;-75
2021/12/15 05:52:14;;;;;;;;;;;1.00;99.90;;;;;;5053373;28;19904;-75
2021/12/15 05:54:40;;;;;;;;;;;1.00;99.90;;;;;;5052755;28;20331;-74
2021/12/15 05:57:06;;;;;;;;;;;1.00;99.90;;;;;;5053397;28;20368;-74
2021/12/15 05:59:31;;;;;;;;;;;1.10;99.90;;;;;;5071511;28;19965;-74
2021/12/15 06:01:57;;;;;;;;;;;1.10;99.90;;;;;;5053219;28;19980;-74
2021/12/15 06:04:23;;;;;;;;;;;1.00;99.90;;;;;;5053494;28;19955;-75
2021/12/15 06:06:48;;;;;;;;;;;1.00;99.90;;;;;;5053681;28;19909;-74
2021/12/15 06:09:14;;;;;;;;;;;1.10;99.90;;;;;;5053298;28;19920;-74
2021/12/15 06:11:41;;;;;;;;;;;1.10;99.90;;;;;;5071427;28;19908;-68
2021/12/15 06:14:08;;;;;;;;;;;1.10;99.90;;;;;;5070905;28;20037;-72
2021/12/15 06:16:34;;;;;;;;;;;1.20;99.90;;;;;;5070760;28;19905;-71
2021/12/15 06:19:00;;;;;;;;;;;1.30;99.90;;;;;;5071252;28;19938;-72
2021/12/15 06:21:26;;;;;;;;;;;1.40;99.90;;;;;;5070711;28;19971;-72
2021/12/15 06:23:52;;;;;;;;;;;1.40;99.90;;;;;;5071228;28;20351;-71
2021/12/15 06:26:18;;;;;;;;;;;1.50;99.90;;;;;;5072358;28;19954;-71
2021/12/15 06:28:45;;;;;;;;;;;1.50;99.90;;;;;;5074823;28;19912;-72
2021/12/15 06:31:11;;;;;;;;;;;1.40;99.90;;;;;;5057083;28;19927;-72
2021/12/15 06:33:38;;;;;;;;;;;1.30;99.90;;;;;;5075081;28;19920;-72
2021/12/15 06:36:05;;;;;;;;;;;1.30;99.90;;;;;;5074635;28;20007;-72
2021/12/15 06:38:33;;;;;;;;;;;1.40;99.90;;;;;;5057202;28;19909;-71
2021/12/15 06:40:59;;;;;;;;;;;1.30;99.90;;;;;;5074304;28;19909;-71
2021/12/15 06:43:25;;;;;;;;;;;1.30;99.90;;;;;;5074511;28;19908;-71
2021/12/15 06:59:14;;;;;;;;;;;1.50;99.90;;;;;;5074350;28;20106;-71
2021/12/15 07:01:39;;;;;;;;;;;1.50;99.90;;;;;;5074391;28;20386;-71
2021/12/15 07:04:05;;;;;;;;;;;1.60;99.90;;;;;;5054236;28;19920;-72
2021/12/15 07:06:30;;;;;;;;;;;1.50;99.90;;;;;;5072905;28;19955;-72
2021/12/15 07:08:56;;;;;;;;;;;1.50;99.90;;;;;;5072472;28;19916;-72
2021/12/15 07:11:22;;;;;;;;;;;1.50;99.90;;;;;;5073689;28;19915;-73
2021/12/15 07:13:48;;;;;;;;;;;1.50;99.90;;;;;;5075100;28;20304;-71
2021/12/15 07:16:14;;;;;;;;;;;1.50;99.90;;;;;;5074059;28;19909;-72
2021/12/15 07:21:33;;;;;;;;;;;1.50;99.90;;;;;;5063035;28;19904;-72
2021/12/15 07:24:00;;;;;;;;;;;1.50;99.90;;;;;;5074136;28;20011;-71
2021/12/15 07:26:25;;;;;;;;;;;1.50;99.90;;;;;;5054821;28;19998;-71
2021/12/15 07:28:51;;;;;;;;;;;1.50;99.90;;;;;;5054772;28;20031;-71
2021/12/15 07:31:17;;;;;;;;;;;1.50;99.90;;;;;;5055180;28;19915;-71
2021/12/15 07:33:42;;;;;;;;;;;1.50;99.90;;;;;;5073899;28;19920;-70
2021/12/15 07:36:08;;;;;;;;;;;1.50;99.90;;;;;;5073497;28;19908;-70
2021/12/15 07:38:40;;;;;;;;;;;1.50;99.90;;;;;;5071956;28;20394;-71
2021/12/15 07:41:07;;;;;;;;;;;1.50;99.90;;;;;;5090124;28;19939;-73
2021/12/15 07:43:33;;;;;;;;;;;1.40;99.90;;;;;;5062576;28;19915;-73
2021/12/15 07:46:05;;;;;;;;;;;1.40;99.90;;;;;;5091495;28;20289;-71
2021/12/15 07:48:34;;;;;;;;;;;1.40;99.90;;;;;;5073279;28;20328;-71
2021/12/15 07:51:01;;;;;;;;;;;1.50;99.90;;;;;;5072841;28;19999;-71
2021/12/15 07:53:27;;;;;;;;;;;1.60;99.90;;;;;;5071764;28;19916;-72
2021/12/15 07:55:54;;;;;;;;;;;1.60;99.90;;;;;;5081164;28;20375;-72
2021/12/15 07:58:20;;;;;;;;;;;1.60;99.90;;;;;;5055065;28;20264;-72
2021/12/15 08:00:49;;;;;;;;;;;1.60;99.90;;;;;;5070917;28;19972;-72
2021/12/15 08:03:16;;;;;;;;;;;1.60;99.90;;;;;;5072798;28;19904;-71
2021/12/15 08:05:43;;;;;;;;;;;1.70;99.90;;;;;;5066686;28;19916;-72
2021/12/15 08:08:10;;;;;;;;;;;1.70;99.90;;;;;;5072280;28;19904;-72
2021/12/15 08:10:36;;;;;;;;;;;1.70;99.90;;;;;;5069767;28;19912;-71
2021/12/15 08:13:04;;;;;;;;;;;1.70;99.90;;;;;;5049642;28;20011;-71
2021/12/15 08:15:31;;;;;;;;;;;1.70;99.90;;;;;;5065907;28;19920;-72
2021/12/15 08:17:59;;;;;;;;;;;1.80;99.90;;;;;;5067398;28;19927;-66
2021/12/15 08:20:45;;;;;;;;;;;1.90;99.90;;;;;;5063591;28;20003;-70
2021/12/15 08:23:13;;;;;;;;;;;1.80;99.90;;;;;;5063354;28;19916;-70
2021/12/15 08:25:48;;;;;;;;;;;1.80;99.90;;;;;;5066479;28;20359;-71
2021/12/15 08:28:16;;;;;;;;;;;1.80;99.90;;;;;;5068713;28;20355;-69
2021/12/15 08:30:42;;;;;;;;;;;1.80;99.90;;;;;;5062623;28;19966;-70
2021/12/15 08:33:14;;;;;;;;;;;1.80;99.90;;;;;;5061296;28;20406;-70
2021/12/15 08:35:44;;;;;;;;;;;1.80;99.90;;;;;;5047954;28;19916;-72
2021/12/15 08:38:11;;;;;;;;;;;1.90;99.90;;;;;;5065691;28;19973;-71
2021/12/15 08:40:37;;;;;;;;;;;1.90;99.90;;;;;;5047653;28;19923;-70
2021/12/15 08:43:04;;;;;;;;;;;1.80;99.90;;;;;;5067071;28;19920;-70
2021/12/15 08:45:30;;;;;;;;;;;1.80;99.90;;;;;;5068004;28;19966;-70
2021/12/15 08:47:58;;;;;;;;;;;1.80;99.90;;;;;;5066247;28;20331;-70
2021/12/15 08:50:26;;;;;;;;;;;1.80;99.90;;;;;;5050050;28;19916;-73
2021/12/15 08:52:52;;;;;;;;;;;1.80;99.90;;;;;;5070454;28;19995;-72
2021/12/15 08:55:18;;;;;;;;;;;1.90;99.90;;;;;;5064829;28;20022;-70
2021/12/15 08:57:48;;;;;;;;;;;1.80;99.90;;;;;;5062819;28;20363;-71
2021/12/15 09:00:15;;;;;;;;;;;1.90;99.90;;;;;;5062891;28;19916;-69
2021/12/15 09:02:40;;;;;;;;;;;2.10;99.90;;;;;;5064638;28;19916;-69
2021/12/15 09:05:06;;;;;;;;;;;2.10;99.90;;;;;;5066003;28;19974;-69
2021/12/15 09:07:32;;;;;;;;;;;2.20;99.90;;;;;;5065623;28;20339;-69
2021/12/15 09:09:57;;;;;;;;;;;2.20;99.90;;;;;;5066969;28;19926;-71
2021/12/15 09:12:23;;;;;;;;;;;2.10;99.90;;;;;;5065369;28;19909;-70
2021/12/15 09:14:49;;;;;;;;;;;2.00;99.90;;;;;;5066316;28;20436;-68
2021/12/15 09:17:14;;;;;;;;;;;1.90;99.90;;;;;;5063743;28;19944;-73
2021/12/15 09:19:40;;;;;;;;;;;1.90;99.90;;;;;;5064813;28;20007;-70
2021/12/15 09:22:06;;;;;;;;;;;1.90;99.90;;;;;;5065836;28;20406;-71
2021/12/15 09:24:31;;;;;;;;;;;1.90;99.90;;;;;;5068665;28;19920;-70
2021/12/15 09:26:57;;;;;;;;;;;1.90;99.90;;;;;;5064963;28;19993;-69
2021/12/15 09:29:23;;;;;;;;;;;1.80;99.90;;;;;;5063403;28;19932;-71
2021/12/15 09:31:49;;;;;;;;;;;1.90;99.90;;;;;;5068513;28;19916;-69
2021/12/15 09:34:18;;;;;;;;;;;2.10;99.90;;;;;;5067185;28;19971;-69
2021/12/15 09:36:45;;;;;;;;;;;2.10;99.90;;;;;;5063330;28;20392;-69
2021/12/15 09:39:12;;;;;;;;;;;2.10;99.90;;;;;;5066618;28;20002;-71
2021/12/15 09:41:38;;;;;;;;;;;2.00;99.90;;;;;;5049145;28;19912;-70
2021/12/15 09:44:09;;;;;;;;;;;2.00;99.90;;;;;;5069108;28;19912;-69
2021/12/15 09:57:35;;;;;;;;;;;2.10;99.90;;;;;;5061419;28;20013;-72
2021/12/15 10:02:58;;;;;;;;;;;2.50;99.90;;;;;;5070541;28;19919;-68
2021/12/15 10:19:19;;;;;;;;;;;4.40;99.90;;;;;;5065817;28;19998;-68
2021/12/15 10:22:00;;;;;;;;;;;3.60;99.90;;;;;;5070901;28;19991;-68
2021/12/15 10:24:27;;;;;;;;;;;3.10;99.90;;;;;;5067842;28;20359;-67
2021/12/15 10:26:54;;;;;;;;;;;2.70;99.90;;;;;;5079653;28;19918;-68
2021/12/15 10:29:21;;;;;;;;;;;2.30;99.90;;;;;;5078267;28;19931;-68
2021/12/15 10:31:56;;;;;;;;;;;2.00;99.90;;;;;;5066835;28;19995;-68
2021/12/15 10:34:22;;;;;;;;;;;2.00;99.90;;;;;;5069741;28;19916;-68
2021/12/15 10:36:48;;;;;;;;;;;2.10;99.90;;;;;;5068578;28;20304;-68
2021/12/15 10:39:14;;;;;;;;;;;2.20;99.90;;;;;;5069697;28;19920;-67
2021/12/15 10:41:42;;;;;;;;;;;2.20;99.90;;;;;;5064883;28;20375;-67
2021/12/15 10:44:21;;;;;;;;;;;2.10;99.90;;;;;;5052446;28;19916;-66
2021/12/15 10:46:50;;;;;;;;;;;1.90;99.90;;;;;;5064946;28;19995;-66
2021/12/15 10:49:20;;;;;;;;;;;1.70;99.90;;;;;;5068783;28;19913;-70
2021/12/15 10:51:59;;;;;;;;;;;1.70;99.90;;;;;;5071923;28;19999;-69
2021/12/15 10:54:30;;;;;;;;;;;1.80;99.90;;;;;;5059908;28;19920;-70
2021/12/15 10:57:16;;;;;;;;;;;1.80;99.90;;;;;;5068159;28;19962;-68
2021/12/15 10:59:41;;;;;;;;;;;1.80;99.90;;;;;;5069181;28;19952;-68
2021/12/15 11:17:52;;;;;;;8.27;3.17;;;1.60;99.90;;;;;;5104561;27;20409;-69
2021/12/15 11:20:38;;;;;;;5.03;3.00;;;1.60;99.90;;;;;;5103772;28;20067;-69
2021/12/15 11:23:18;;;;;;;5.05;3.20;;;1.60;99.90;;;;;;5082215;28;20492;-69
2021/12/15 11:25:56;;;;;;;9.93;3.50;;;1.50;99.90;;;;;;5082587;28;20043;-69
2021/12/15 11:28:40;;;;;;;5.45;3.00;;;1.40;99.90;;;;;;5084076;28;20077;-73
2021/12/15 11:31:07;;;;;;;4.97;3.30;;;1.40;99.90;;;;;;5086869;28;20039;-71
2021/12/15 11:33:46;;;;;;;5.47;2.95;;;1.40;99.90;;;;;;5089155;28;20028;-74
2021/12/15 11:36:25;;;;;;;7.70;4.93;;;1.90;99.90;;;;;;5085269;28;20036;-71
2021/12/15 11:39:16;;;;;;;5.10;2.78;;;1.50;99.90;;;;;;5090352;28;20107;-70
2021/12/15 11:41:48;;;;;;;4.40;2.58;;;1.40;99.90;;;;;;5077361;28;20044;-68
2021/12/15 11:44:20;;;;;;;5.65;3.33;;;1.50;99.90;;;;;;5099093;28;20036;-68
2021/12/15 11:47:01;;;;;;;5.50;2.90;;;1.50;99.90;;;;;;5084048;28;20032;-67
2021/12/15 11:49:40;;;;;;;5.28;3.13;;;1.50;99.90;;;;;;5091821;28;20028;-68
2021/12/15 11:52:09;;;;;;;7.70;3.58;;;1.30;99.90;;;;;;5085922;28;20024;-66
2021/12/15 11:54:40;;;;;;;5.78;2.83;;;1.30;99.90;;;;;;5085149;28;20024;-68
2021/12/15 11:57:16;;;;;;;5.18;2.97;;;1.40;99.90;;;;;;5088821;28;20138;-67
2021/12/15 11:59:49;;;;;;;5.30;3.08;;;1.40;99.90;;;;;;5085844;28;20048;-67
2021/12/15 12:02:32;;;;;;;5.20;2.92;;;1.30;99.90;;;;;;5076325;28;20063;-67
2021/12/15 12:05:02;;;;;;;5.15;2.65;;;1.20;99.90;;;;;;5081979;28;20059;-68
2021/12/15 12:07:32;;;;;;;6.80;2.80;;;1.30;99.90;;;;;;5089126;28;20465;-67
2021/12/15 12:10:11;;;;;;;6.78;2.92;;;1.30;99.90;;;;;;5083266;28;20036;-67
2021/12/15 12:12:47;;;;;;;5.22;2.88;;;1.40;99.90;;;;;;5080692;28;20028;-67
2021/12/15 12:15:15;;;;;;;5.65;3.10;;;1.30;99.90;;;;;;5083159;28;20032;-67
2021/12/15 12:17:44;;;;;;;6.72;3.50;;;1.40;99.90;;;;;;5069289;28;20036;-69
2021/12/15 12:20:28;;;;;;;6.45;3.38;;;1.40;99.90;;;;;;5069805;28;20465;-68
2021/12/15 12:22:56;;;;;;;5.82;3.33;;;1.40;99.90;;;;;;5068427;28;20036;-68
2021/12/15 12:25:28;;;;;;;5.38;2.88;;;1.30;99.90;;;;;;5068257;28;20033;-68
2021/12/15 12:27:56;;;;;;;5.55;3.03;;;1.20;99.90;;;;;;5068318;28;20033;-74
2021/12/15 12:30:32;;;;;;;6.63;3.33;;;1.20;99.90;;;;;;5068824;28;20025;-69
2021/12/15 12:32:59;;;;;;;5.35;3.15;;;1.20;99.90;;;;;;5066818;28;20020;-67
2021/12/15 12:35:26;;;;;;;;;;;1.20;99.90;;;;;;5071820;28;20069;-73
2021/12/15 12:37:56;;;;;;;6.28;3.35;;;1.20;99.90;;;;;;5068317;28;20315;-74
2021/12/15 12:40:30;;;;;;;5.60;3.28;;;1.20;99.90;;;;;;5071457;28;20458;-72
2021/12/15 12:42:56;;;;;;;4.82;2.25;;;1.10;99.90;;;;;;5070417;28;20479;-73
2021/12/15 12:45:34;;;;;;;6.05;2.88;;;1.10;99.90;;;;;;5066922;28;21387;-69
2021/12/15 12:48:48;;;;;;;5.35;3.03;;;1.00;99.90;;;;;;5070149;28;20060;-68
2021/12/15 12:59:47;;;;;;;4.65;2.40;;;0.90;99.90;;;;;;5069145;28;20047;-67
2021/12/15 13:02:27;;;;;;;5.68;2.75;;;0.90;99.90;;;;;;5066278;28;20072;-71
2021/12/15 13:04:52;;;;;;;5.60;2.83;;;1.00;99.90;;;;;;5065427;28;20033;-69
2021/12/15 13:07:50;;;;;;;6.23;2.63;;;1.00;99.90;;;;;;5068854;28;20028;-68
2021/12/15 13:10:19;;;;;;;7.35;2.90;;;1.00;99.90;;;;;;5069446;28;20750;-68
2021/12/15 13:12:47;;;;;;;4.88;2.78;;;0.90;99.90;;;;;;5067986;28;20024;-68
2021/12/15 13:15:22;;;;;;;5.75;2.90;;;0.80;99.90;;;;;;5068515;28;20037;-67
2021/12/15 13:18:03;;;;;;;6.65;3.22;;;0.70;99.90;;;;;;5029858;28;20045;-67
2021/12/15 13:20:32;;;;;;;5.45;2.75;;;0.80;99.90;;;;;;5035625;28;20029;-68
2021/12/15 13:23:29;;;;;;;7.85;3.38;;;0.80;99.90;;;;;;5030218;28;20067;-68
2021/12/15 13:31:06;;;;;;;7.05;3.58;;;0.90;99.90;;;;;;5024220;28;20079;-68
2021/12/15 13:33:36;;;;;;;7.20;3.57;;;0.90;99.90;;;;;;5023729;28;20128;-69
2021/12/15 13:36:04;;;;;;;6.30;3.35;;;1.00;99.90;;;;;;5028849;28;20125;-68
2021/12/15 13:38:37;;;;;;;6.03;3.08;;;1.00;99.90;;;;;;5019021;28;20044;-68
2021/12/15 13:44:19;;;;;;;7.25;4.15;;;1.00;99.90;;;;;;5027838;28;20071;-68
2021/12/15 13:46:50;;;;;;;7.40;3.67;;;1.00;99.90;;;;;;5029852;28;20091;-69
2021/12/15 13:49:40;;;;;;;6.75;3.85;;;1.00;99.90;;;;;;5033426;28;20109;-68
2021/12/15 13:52:10;;;;;;;8.45;3.55;;;0.90;99.90;;;;;;5025268;28;20029;-67
2021/12/15 13:54:36;;;;;;;6.88;4.10;;;0.90;99.90;;;;;;5021340;28;20038;-68
2021/12/15 13:57:24;;;;;;;7.83;3.87;;;0.80;99.90;;;;;;5019691;28;20025;-68
2021/12/15 13:59:53;;;;;;;7.15;4.10;;;0.70;99.90;;;;;;5018009;28;20091;-68
2021/12/15 14:02:26;;;;;;;6.05;3.70;;;0.70;99.90;;;;;;5023566;28;20025;-68
2021/12/15 14:04:59;;;;;;;7.47;3.45;;;0.70;99.90;;;;;;5029040;28;20108;-68
2021/12/15 14:07:30;;;;;;;8.10;3.72;;;0.70;99.90;;;;;;5023872;28;20041;-69
2021/12/15 14:10:20;;;;;;;6.30;4.18;;;0.70;99.90;;;;;;5026038;28;20101;-68
2021/12/15 14:12:49;;;;;;;8.63;4.90;;;0.70;99.90;;;;;;5029479;28;20024;-69
2021/12/15 14:15:41;;;;;;;9.55;4.43;;;0.80;99.90;;;;;;5024862;28;20923;-69
2021/12/15 14:18:24;;;;;;;10.63;5.07;;;0.80;99.90;;;;;;5024137;28;20041;-64
2021/12/15 14:20:56;;;;;;;7.97;4.20;;;0.80;99.90;;;;;;5018688;28;20412;-69
2021/12/15 14:23:32;;;;;;;8.63;4.60;;;0.80;99.90;;;;;;5038786;28;20354;-69
2021/12/15 14:40:07;;;;;;;11.38;6.50;;;0.80;99.90;;;;;;5050773;27;1333720;-66
2021/12/15 14:42:34;;;;;;;12.70;6.20;;;1.10;99.90;;;;;;5112463;28;20462;-65
2021/12/15 14:45:03;;;;;;;13.52;5.65;;;1.10;99.90;;;;;;5086087;28;20149;-64
2021/12/15 14:47:33;;;;;;;13.07;6.28;;;1.00;99.90;;;;;;5096227;28;20452;-64
2021/12/15 14:50:05;;;;;;;11.93;6.20;;;0.90;99.90;;;;;;5101583;28;20123;-66
2021/12/15 14:52:34;;;;;;;11.27;6.22;;;0.90;99.90;;;;;;5075133;28;20382;-65
2021/12/15 14:55:06;;;;;;;8.95;5.50;;;0.90;99.90;;;;;;5106958;28;20476;-66
2021/12/15 14:57:33;;;;;;;12.43;6.00;;;0.90;99.90;;;;;;5102491;28;20132;-65
2021/12/15 15:00:14;;;;;;;10.90;6.45;;;1.00;99.90;;;;;;5087275;28;20059;-65
2021/12/15 15:02:44;;;;;;;11.65;6.00;;;0.90;99.90;;;;;;5107118;28;20408;-65
2021/12/15 15:05:15;;;;;;;11.18;5.47;;;1.00;99.90;;;;;;5066284;28;20055;-65
2021/12/15 15:07:47;;;;;;;12.75;6.68;;;0.90;99.90;;;;;;5098033;28;20358;-63
2021/12/15 15:10:16;;;;;;;11.13;5.85;;;0.90;99.90;;;;;;5083345;28;20028;-65
2021/12/15 15:12:43;;;;;;;12.38;6.25;;;0.90;99.90;;;;;;5097646;28;20048;-64
2021/12/15 15:15:32;;;;;;;9.90;6.00;;;0.90;99.90;;;;;;5082984;28;20098;-64
2021/12/15 15:18:26;;;;;;;10.35;6.15;;;0.90;99.90;;;;;;5104433;28;20027;-64
2021/12/15 15:21:08;;;;;;;12.50;5.90;;;0.80;99.90;;;;;;5083593;28;20028;-64
2021/12/15 15:23:39;;;;;;;9.90;5.38;;;0.80;99.90;;;;;;5081328;28;20035;-64
2021/12/15 15:26:07;;;;;;;8.70;5.28;;;0.80;99.90;;;;;;5073270;28;20036;-65
2021/12/15 15:28:43;;;;;;;9.75;5.45;;;0.80;99.90;;;;;;5097345;28;20172;-64
2021/12/15 15:31:14;;;;;;;10.50;5.33;;;0.80;99.90;;;;;;5068537;28;20024;-63
2021/12/15 15:33:41;;;;;;;11.35;5.90;;;0.90;99.90;;;;;;5087689;28;20037;-63
2021/12/15 15:36:09;;;;;;;;;;;0.90;99.90;;;;;;5071322;28;20403;-64
2021/12/15 15:38:39;;;;;;;12.73;6.22;;;1.00;99.90;;;;;;5092964;28;20336;-65
2021/12/15 15:41:10;;;;;;;11.48;6.47;;;1.00;99.90;;;;;;5076129;28;20025;-64
2021/12/15 15:43:40;;;;;;;11.43;6.68;;;1.10;99.90;;;;;;5076310;28;20040;-66
2021/12/15 15:46:13;;;;;;;11.23;6.70;;;1.10;99.90;;;;;;5073227;28;20032;-68
2021/12/15 15:48:42;;;;;;;10.05;5.63;;;1.10;99.90;;;;;;5061148;28;20033;-66
2021/12/15 15:51:07;;;;;;;12.20;6.15;;;1.00;99.90;;;;;;5063857;28;20090;-67
2021/12/15 15:53:34;;;;;;;8.07;4.63;;;0.90;99.90;;;;;;5067853;28;20028;-70
2021/12/15 15:56:13;;;;;;;11.02;6.03;;;0.90;99.90;;;;;;5057914;28;20585;-66
2021/12/15 15:58:41;;;;;;;11.52;6.65;;;1.00;99.90;;;;;;5068848;28;20477;-66
2021/12/15 16:01:07;;;;;;;10.82;5.70;;;1.00;99.90;;;;;;5046098;28;20029;-69
2021/12/15 16:03:35;;;;;;;9.60;5.63;;;1.00;99.90;;;;;;5047943;28;20074;-66